sensor_id;sensor_type;location;lat;lon;timestamp;pressure;altitude;pressure_sealevel;temperature;humidity
37238;BME280;23129;49.662;8.448;2023-01-10T00:01:51;100408.00;;;6.62;100.00
37238;BME280;23129;49.662;8.448;2023-01-10T00:04:19;100418.44;;;6.62;100.00
37238;BME280;23129;49.662;8.448;2023-01-10T00:06:48;100409.72;;;6.63;100.00
37238;BME280;23129;49.662;8.448;2023-01-10T00:09:19;100422.75;;;6.63;100.00
37238;BME280;23129;49.662;8.448;2023-01-10T00:11:47;100419.28;;;6.62;100.00
37238;BME280;23129;49.662;8.448;2023-01-10T00:14:33;100418.44;;;6.60;100.00
37238;BME280;23129;49.662;8.448;2023-01-10T00:17:02;100417.56;;;6.60;100.00
37238;BME280;23129;49.662;8.448;2023-01-10T00:19:31;100421.94;;;6.59;100.00
37238;BME280;23129;49.662;8.448;2023-01-10T00:21:59;100426.25;;;6.60;100.00
37238;BME280;23129;49.662;8.448;2023-01-10T00:24:41;100434.91;;;6.62;100.00
37238;BME280;23129;49.662;8.448;2023-01-10T00:27:10;100440.09;;;6.64;100.00
37238;BME280;23129;49.662;8.448;2023-01-10T00:29:43;100441.81;;;6.67;100.00
37238;BME280;23129;49.662;8.448;2023-01-10T00:32:13;100451.34;;;6.69;100.00
37238;BME280;23129;49.662;8.448;2023-01-10T00:34:41;100449.59;;;6.71;100.00
37238;BME280;23129;49.662;8.448;2023-01-10T00:37:10;100455.66;;;6.72;100.00
37238;BME280;23129;49.662;8.448;2023-01-10T00:39:39;100469.53;;;6.74;100.00
37238;BME280;23129;49.662;8.448;2023-01-10T00:42:09;100465.19;;;6.74;100.00
37238;BME280;23129;49.662;8.448;2023-01-10T00:44:55;100473.91;;;6.73;100.00
37238;BME280;23129;49.662;8.448;2023-01-10T00:47:24;100478.25;;;6.71;100.00
37238;BME280;23129;49.662;8.448;2023-01-10T00:49:53;100487.84;;;6.69;100.00
37238;BME280;23129;49.662;8.448;2023-01-10T00:52:21;100500.91;;;6.66;100.00
37238;BME280;23129;49.662;8.448;2023-01-10T00:54:50;100503.56;;;6.60;100.00
37238;BME280;23129;49.662;8.448;2023-01-10T00:57:19;100519.28;;;6.54;100.00
37238;BME280;23129;49.662;8.448;2023-01-10T00:59:48;100528.91;;;6.47;100.00
37238;BME280;23129;49.662;8.448;2023-01-10T01:02:16;100541.09;;;6.42;100.00
37238;BME280;23129;49.662;8.448;2023-01-10T01:04:45;100543.75;;;6.37;100.00
37238;BME280;23129;49.662;8.448;2023-01-10T01:07:14;100554.22;;;6.34;100.00
37238;BME280;23129;49.662;8.448;2023-01-10T01:09:42;100561.19;;;6.29;100.00
37238;BME280;23129;49.662;8.448;2023-01-10T01:12:26;100568.16;;;6.24;100.00
37238;BME280;23129;49.662;8.448;2023-01-10T01:14:55;100570.81;;;6.18;100.00
37238;BME280;23129;49.662;8.448;2023-01-10T01:17:24;100578.69;;;6.12;100.00
37238;BME280;23129;49.662;8.448;2023-01-10T01:19:53;100593.47;;;6.07;100.00
37238;BME280;23129;49.662;8.448;2023-01-10T01:22:21;100614.38;;;5.99;100.00
37238;BME280;23129;49.662;8.448;2023-01-10T01:24:49;100616.13;;;5.92;100.00
37238;BME280;23129;49.662;8.448;2023-01-10T01:27:18;100615.28;;;5.87;100.00
37238;BME280;23129;49.662;8.448;2023-01-10T01:29:48;100632.66;;;5.84;100.00
37238;BME280;23129;49.662;8.448;2023-01-10T01:32:16;100632.66;;;5.81;100.00
37238;BME280;23129;49.662;8.448;2023-01-10T01:34:45;100646.56;;;5.78;100.00
37238;BME280;23129;49.662;8.448;2023-01-10T01:37:14;100650.91;;;5.76;100.00
37238;BME280;23129;49.662;8.448;2023-01-10T01:39:42;100657.84;;;5.76;100.00
37238;BME280;23129;49.662;8.448;2023-01-10T01:42:23;100663.94;;;5.70;100.00
37238;BME280;23129;49.662;8.448;2023-01-10T01:45:39;100670.88;;;5.68;100.00
37238;BME280;23129;49.662;8.448;2023-01-10T01:48:24;100677.81;;;5.67;100.00
37238;BME280;23129;49.662;8.448;2023-01-10T01:51:00;100688.25;;;5.66;100.00
37238;BME280;23129;49.662;8.448;2023-01-10T01:53:39;100698.66;;;5.63;100.00
37238;BME280;23129;49.662;8.448;2023-01-10T01:56:13;100703.88;;;5.61;100.00
37238;BME280;23129;49.662;8.448;2023-01-10T01:58:48;100709.09;;;5.60;100.00
37238;BME280;23129;49.662;8.448;2023-01-10T02:01:21;100717.75;;;5.59;100.00
37238;BME280;23129;49.662;8.448;2023-01-10T02:03:54;100720.34;;;5.56;100.00
37238;BME280;23129;49.662;8.448;2023-01-10T02:06:25;100712.53;;;5.59;100.00
37238;BME280;23129;49.662;8.448;2023-01-10T02:08:59;100721.22;;;5.64;100.00
37238;BME280;23129;49.662;8.448;2023-01-10T02:11:31;100735.06;;;5.69;100.00
37238;BME280;23129;49.662;8.448;2023-01-10T02:14:01;100735.06;;;5.72;100.00
37238;BME280;23129;49.662;8.448;2023-01-10T02:16:33;100741.13;;;5.74;100.00
37238;BME280;23129;49.662;8.448;2023-01-10T02:19:02;100741.97;;;5.76;100.00
37238;BME280;23129;49.662;8.448;2023-01-10T02:22:11;100741.97;;;5.76;100.00
37238;BME280;23129;49.662;8.448;2023-01-10T02:31:33;100743.69;;;5.77;100.00
37238;BME280;23129;49.662;8.448;2023-01-10T02:34:09;100745.44;;;5.78;100.00
37238;BME280;23129;49.662;8.448;2023-01-10T02:36:47;100751.50;;;5.80;100.00
37238;BME280;23129;49.662;8.448;2023-01-10T02:39:23;100750.66;;;5.81;100.00
37238;BME280;23129;49.662;8.448;2023-01-10T02:41:58;100754.97;;;5.82;100.00
37238;BME280;23129;49.662;8.448;2023-01-10T02:44:34;100751.50;;;5.83;100.00
37238;BME280;23129;49.662;8.448;2023-01-10T02:47:06;100761.06;;;5.84;100.00
37238;BME280;23129;49.662;8.448;2023-01-10T02:49:42;100766.25;;;5.87;100.00
37238;BME280;23129;49.662;8.448;2023-01-10T02:52:13;100776.66;;;5.90;100.00
37238;BME280;23129;49.662;8.448;2023-01-10T02:54:44;100769.72;;;5.89;100.00
37238;BME280;23129;49.662;8.448;2023-01-10T02:57:33;100776.66;;;5.87;100.00
37238;BME280;23129;49.662;8.448;2023-01-10T03:00:29;100783.59;;;5.85;100.00
37238;BME280;23129;49.662;8.448;2023-01-10T03:03:12;100784.47;;;5.83;100.00
37238;BME280;23129;49.662;8.448;2023-01-10T03:06:02;100785.34;;;5.80;100.00
37238;BME280;23129;49.662;8.448;2023-01-10T03:08:38;100793.16;;;5.79;100.00
37238;BME280;23129;49.662;8.448;2023-01-10T03:11:09;100797.53;;;5.75;100.00
37238;BME280;23129;49.662;8.448;2023-01-10T03:13:44;100807.94;;;5.72;100.00
37238;BME280;23129;49.662;8.448;2023-01-10T03:16:18;100805.31;;;5.70;100.00
37238;BME280;23129;49.662;8.448;2023-01-10T03:18:53;100807.94;;;5.66;100.00
37238;BME280;23129;49.662;8.448;2023-01-10T03:21:26;100811.41;;;5.62;100.00
37238;BME280;23129;49.662;8.448;2023-01-10T03:23:59;100824.44;;;5.57;100.00
37238;BME280;23129;49.662;8.448;2023-01-10T03:26:38;100830.53;;;5.48;100.00
37238;BME280;23129;49.662;8.448;2023-01-10T03:29:11;100827.03;;;5.43;100.00
37238;BME280;23129;49.662;8.448;2023-01-10T03:31:46;100840.94;;;5.39;100.00
37238;BME280;23129;49.662;8.448;2023-01-10T03:34:17;100840.94;;;5.36;100.00
37238;BME280;23129;49.662;8.448;2023-01-10T03:36:51;100847.84;;;5.37;100.00
37238;BME280;23129;49.662;8.448;2023-01-10T03:39:32;100850.47;;;5.40;100.00
37238;BME280;23129;49.662;8.448;2023-01-10T03:42:06;100857.41;;;5.43;100.00
37238;BME280;23129;49.662;8.448;2023-01-10T03:44:43;100856.53;;;5.45;100.00
37238;BME280;23129;49.662;8.448;2023-01-10T03:47:18;100874.75;;;5.48;100.00
37238;BME280;23129;49.662;8.448;2023-01-10T03:49:53;100878.22;;;5.51;100.00
37238;BME280;23129;49.662;8.448;2023-01-10T03:52:25;100879.94;;;5.52;100.00
37238;BME280;23129;49.662;8.448;2023-01-10T03:54:54;100888.59;;;5.52;100.00
37238;BME280;23129;49.662;8.448;2023-01-10T03:57:25;100887.75;;;5.55;100.00
37238;BME280;23129;49.662;8.448;2023-01-10T03:59:55;100892.94;;;5.55;100.00
37238;BME280;23129;49.662;8.448;2023-01-10T04:02:26;100905.97;;;5.58;100.00
37238;BME280;23129;49.662;8.448;2023-01-10T04:04:54;100915.50;;;5.59;100.00
37238;BME280;23129;49.662;8.448;2023-01-10T04:07:24;100918.97;;;5.61;100.00
37238;BME280;23129;49.662;8.448;2023-01-10T04:09:53;100912.91;;;5.63;100.00
37238;BME280;23129;49.662;8.448;2023-01-10T04:12:22;100920.69;;;5.65;100.00
37238;BME280;23129;49.662;8.448;2023-01-10T04:14:50;100925.91;;;5.68;100.00
37238;BME280;23129;49.662;8.448;2023-01-10T04:17:19;100922.44;;;5.69;100.00
37238;BME280;23129;49.662;8.448;2023-01-10T04:19:48;100929.38;;;5.70;100.00
37238;BME280;23129;49.662;8.448;2023-01-10T04:22:16;100931.09;;;5.71;100.00
37238;BME280;23129;49.662;8.448;2023-01-10T04:24:46;100938.06;;;5.72;100.00
37238;BME280;23129;49.662;8.448;2023-01-10T04:27:17;100940.66;;;5.72;100.00
37238;BME280;23129;49.662;8.448;2023-01-10T04:29:46;100946.72;;;5.71;100.00
37238;BME280;23129;49.662;8.448;2023-01-10T04:32:15;100951.06;;;5.72;100.00
37238;BME280;23129;49.662;8.448;2023-01-10T04:34:43;100949.31;;;5.74;100.00
37238;BME280;23129;49.662;8.448;2023-01-10T04:37:12;100949.31;;;5.74;100.00
37238;BME280;23129;49.662;8.448;2023-01-10T04:39:40;100952.81;;;5.73;100.00
37238;BME280;23129;49.662;8.448;2023-01-10T04:42:10;100953.69;;;5.72;100.00
37238;BME280;23129;49.662;8.448;2023-01-10T04:44:39;100965.81;;;5.70;100.00
37238;BME280;23129;49.662;8.448;2023-01-10T04:47:08;100960.59;;;5.67;100.00
37238;BME280;23129;49.662;8.448;2023-01-10T04:49:36;100971.91;;;5.66;100.00
37238;BME280;23129;49.662;8.448;2023-01-10T04:52:04;100974.50;;;5.66;100.00
37238;BME280;23129;49.662;8.448;2023-01-10T04:54:33;100976.22;;;5.67;100.00
37238;BME280;23129;49.662;8.448;2023-01-10T04:57:02;100972.75;;;5.65;100.00
37238;BME280;23129;49.662;8.448;2023-01-10T04:59:33;100985.75;;;5.65;100.00
37238;BME280;23129;49.662;8.448;2023-01-10T05:02:02;100984.91;;;5.63;100.00
37238;BME280;23129;49.662;8.448;2023-01-10T05:04:31;100983.16;;;5.62;100.00
37238;BME280;23129;49.662;8.448;2023-01-10T05:06:59;100985.75;;;5.60;100.00
37238;BME280;23129;49.662;8.448;2023-01-10T05:09:28;100984.91;;;5.57;100.00
37238;BME280;23129;49.662;8.448;2023-01-10T05:11:56;100991.81;;;5.55;100.00
37238;BME280;23129;49.662;8.448;2023-01-10T05:14:24;100988.34;;;5.53;100.00
37238;BME280;23129;49.662;8.448;2023-01-10T05:16:54;100999.63;;;5.52;100.00
37238;BME280;23129;49.662;8.448;2023-01-10T05:19:23;101005.69;;;5.51;100.00
37238;BME280;23129;49.662;8.448;2023-01-10T05:21:51;101004.81;;;5.52;100.00
37238;BME280;23129;49.662;8.448;2023-01-10T05:24:22;101015.22;;;5.53;100.00
37238;BME280;23129;49.662;8.448;2023-01-10T05:26:50;101021.31;;;5.57;100.00
37238;BME280;23129;49.662;8.448;2023-01-10T05:29:19;101027.41;;;5.60;100.00
37238;BME280;23129;49.662;8.448;2023-01-10T05:31:49;101030.88;;;5.64;100.00
37238;BME280;23129;49.662;8.448;2023-01-10T05:34:19;101024.78;;;5.65;100.00
37238;BME280;23129;49.662;8.448;2023-01-10T05:36:48;101033.47;;;5.67;100.00
37238;BME280;23129;49.662;8.448;2023-01-10T05:39:17;101035.19;;;5.68;100.00
37238;BME280;23129;49.662;8.448;2023-01-10T05:41:45;101030.91;;;5.71;100.00
37238;BME280;23129;49.662;8.448;2023-01-10T05:44:13;101036.97;;;5.72;100.00
37238;BME280;23129;49.662;8.448;2023-01-10T05:46:42;101040.41;;;5.74;100.00
37238;BME280;23129;49.662;8.448;2023-01-10T05:49:10;101029.16;;;5.75;100.00
37238;BME280;23129;49.662;8.448;2023-01-10T05:51:40;101037.81;;;5.76;100.00
37238;BME280;23129;49.662;8.448;2023-01-10T05:54:09;101047.38;;;5.75;100.00
37238;BME280;23129;49.662;8.448;2023-01-10T05:56:37;101053.44;;;5.76;100.00
37238;BME280;23129;49.662;8.448;2023-01-10T05:59:06;101059.50;;;5.76;100.00
37238;BME280;23129;49.662;8.448;2023-01-10T06:01:53;101063.00;;;5.78;100.00
37238;BME280;23129;49.662;8.448;2023-01-10T06:04:22;101073.41;;;5.80;100.00
37238;BME280;23129;49.662;8.448;2023-01-10T06:06:51;101073.41;;;5.81;100.00
37238;BME280;23129;49.662;8.448;2023-01-10T06:09:20;101082.06;;;5.83;100.00
37238;BME280;23129;49.662;8.448;2023-01-10T06:11:48;101079.50;;;5.86;100.00
37238;BME280;23129;49.662;8.448;2023-01-10T06:14:17;101086.44;;;5.89;100.00
37238;BME280;23129;49.662;8.448;2023-01-10T06:16:46;101099.47;;;5.90;100.00
37238;BME280;23129;49.662;8.448;2023-01-10T06:19:14;101104.66;;;5.92;100.00
37238;BME280;23129;49.662;8.448;2023-01-10T06:21:43;101101.22;;;5.94;100.00
37238;BME280;23129;49.662;8.448;2023-01-10T06:24:12;101110.78;;;5.97;100.00
37238;BME280;23129;49.662;8.448;2023-01-10T06:26:41;101113.41;;;5.99;100.00
37238;BME280;23129;49.662;8.448;2023-01-10T06:29:10;101122.06;;;6.01;100.00
37238;BME280;23129;49.662;8.448;2023-01-10T06:31:38;101117.72;;;6.01;100.00
37238;BME280;23129;49.662;8.448;2023-01-10T06:34:06;101126.41;;;6.03;100.00
37238;BME280;23129;49.662;8.448;2023-01-10T06:36:35;101120.34;;;6.06;100.00
37238;BME280;23129;49.662;8.448;2023-01-10T06:39:03;101123.81;;;6.05;100.00
37238;BME280;23129;49.662;8.448;2023-01-10T06:41:33;101135.09;;;6.05;100.00
37238;BME280;23129;49.662;8.448;2023-01-10T06:44:02;101155.06;;;6.05;100.00
37238;BME280;23129;49.662;8.448;2023-01-10T06:46:31;101168.09;;;6.05;100.00
37238;BME280;23129;49.662;8.448;2023-01-10T06:48:59;101181.13;;;6.05;100.00
37238;BME280;23129;49.662;8.448;2023-01-10T06:51:28;101176.78;;;6.05;100.00
37238;BME280;23129;49.662;8.448;2023-01-10T06:53:56;101175.03;;;6.06;100.00
37238;BME280;23129;49.662;8.448;2023-01-10T06:56:25;101178.50;;;6.05;100.00
37238;BME280;23129;49.662;8.448;2023-01-10T06:58:54;101173.28;;;6.03;100.00
37238;BME280;23129;49.662;8.448;2023-01-10T07:01:23;101167.22;;;6.03;100.00
37238;BME280;23129;49.662;8.448;2023-01-10T07:03:52;101168.94;;;6.01;100.00
37238;BME280;23129;49.662;8.448;2023-01-10T07:06:20;101170.69;;;5.99;100.00
37238;BME280;23129;49.662;8.448;2023-01-10T07:08:49;101172.41;;;5.97;100.00
37238;BME280;23129;49.662;8.448;2023-01-10T07:11:17;101188.03;;;5.93;100.00
37238;BME280;23129;49.662;8.448;2023-01-10T07:13:45;101204.50;;;5.92;100.00
37238;BME280;23129;49.662;8.448;2023-01-10T07:16:15;101210.53;;;5.91;100.00
37238;BME280;23129;49.662;8.448;2023-01-10T07:18:44;101214.03;;;5.90;100.00
37238;BME280;23129;49.662;8.448;2023-01-10T07:21:12;101201.88;;;5.89;100.00
37238;BME280;23129;49.662;8.448;2023-01-10T07:23:42;101214.91;;;5.89;100.00
37238;BME280;23129;49.662;8.448;2023-01-10T07:26:11;101233.09;;;5.88;100.00
37238;BME280;23129;49.662;8.448;2023-01-10T07:28:44;101227.03;;;5.87;100.00
37238;BME280;23129;49.662;8.448;2023-01-10T07:31:12;101240.03;;;5.87;100.00
37238;BME280;23129;49.662;8.448;2023-01-10T07:33:43;101234.81;;;5.84;100.00
37238;BME280;23129;49.662;8.448;2023-01-10T07:36:12;101236.56;;;5.84;100.00
37238;BME280;23129;49.662;8.448;2023-01-10T07:38:40;101239.16;;;5.84;100.00
37238;BME280;23129;49.662;8.448;2023-01-10T07:41:09;101224.41;;;5.84;100.00
37238;BME280;23129;49.662;8.448;2023-01-10T07:43:38;101227.00;;;5.86;100.00
37238;BME280;23129;49.662;8.448;2023-01-10T07:46:07;101244.34;;;5.85;100.00
37238;BME280;23129;49.662;8.448;2023-01-10T07:48:38;101250.44;;;5.87;100.00
37238;BME280;23129;49.662;8.448;2023-01-10T07:51:09;101240.03;;;5.87;100.00
37238;BME280;23129;49.662;8.448;2023-01-10T07:53:38;101257.38;;;5.88;100.00
37238;BME280;23129;49.662;8.448;2023-01-10T07:56:06;101261.75;;;5.89;100.00
37238;BME280;23129;49.662;8.448;2023-01-10T07:58:35;101263.47;;;5.89;100.00
37238;BME280;23129;49.662;8.448;2023-01-10T08:01:04;101258.25;;;5.89;100.00
37238;BME280;23129;49.662;8.448;2023-01-10T08:03:33;101266.09;;;5.90;100.00
37238;BME280;23129;49.662;8.448;2023-01-10T08:06:05;101266.97;;;5.92;100.00
37238;BME280;23129;49.662;8.448;2023-01-10T08:08:35;101267.00;;;5.94;100.00
37238;BME280;23129;49.662;8.448;2023-01-10T08:11:04;101276.56;;;5.97;100.00
37238;BME280;23129;49.662;8.448;2023-01-10T08:13:33;101262.69;;;6.01;100.00
37238;BME280;23129;49.662;8.448;2023-01-10T08:16:04;101279.19;;;6.06;100.00
37238;BME280;23129;49.662;8.448;2023-01-10T08:18:33;101279.22;;;6.12;100.00
37238;BME280;23129;49.662;8.448;2023-01-10T08:21:02;101288.78;;;6.19;100.00
37238;BME280;23129;49.662;8.448;2023-01-10T08:23:31;101292.31;;;6.27;100.00
37238;BME280;23129;49.662;8.448;2023-01-10T08:26:01;101298.41;;;6.34;100.00
37238;BME280;23129;49.662;8.448;2023-01-10T08:28:29;101289.72;;;6.36;100.00
37238;BME280;23129;49.662;8.448;2023-01-10T08:31:03;101287.13;;;6.36;100.00
37238;BME280;23129;49.662;8.448;2023-01-10T08:33:32;101292.31;;;6.36;100.00
37238;BME280;23129;49.662;8.448;2023-01-10T08:36:00;101288.88;;;6.37;100.00
37238;BME280;23129;49.662;8.448;2023-01-10T08:38:29;101299.31;;;6.37;100.00
37238;BME280;23129;49.662;8.448;2023-01-10T08:40:57;101304.50;;;6.37;100.00
37238;BME280;23129;49.662;8.448;2023-01-10T08:43:27;101315.78;;;6.39;100.00
37238;BME280;23129;49.662;8.448;2023-01-10T08:45:56;101314.06;;;6.40;100.00
37238;BME280;23129;49.662;8.448;2023-01-10T08:48:24;101314.06;;;6.43;100.00
37238;BME280;23129;49.662;8.448;2023-01-10T08:50:52;101321.91;;;6.45;100.00
37238;BME280;23129;49.662;8.448;2023-01-10T08:53:20;101325.38;;;6.47;100.00
37238;BME280;23129;49.662;8.448;2023-01-10T08:55:49;101328.84;;;6.49;100.00
37238;BME280;23129;49.662;8.448;2023-01-10T08:58:18;101329.75;;;6.49;100.00
37238;BME280;23129;49.662;8.448;2023-01-10T09:00:48;101321.91;;;6.51;100.00
37238;BME280;23129;49.662;8.448;2023-01-10T09:03:17;101316.69;;;6.51;100.00
37238;BME280;23129;49.662;8.448;2023-01-10T09:05:46;101328.84;;;6.52;100.00
37238;BME280;23129;49.662;8.448;2023-01-10T09:08:15;101321.91;;;6.54;100.00
37238;BME280;23129;49.662;8.448;2023-01-10T09:10:43;101321.03;;;6.55;100.00
37238;BME280;23129;49.662;8.448;2023-01-10T09:13:11;101332.34;;;6.57;100.00
37238;BME280;23129;49.662;8.448;2023-01-10T09:15:41;101335.84;;;6.59;100.00
37238;BME280;23129;49.662;8.448;2023-01-10T09:18:12;101338.44;;;6.60;100.00
37238;BME280;23129;49.662;8.448;2023-01-10T09:20:41;101356.72;;;6.62;100.00
37238;BME280;23129;49.662;8.448;2023-01-10T09:23:12;101358.44;;;6.63;100.00
37238;BME280;23129;49.662;8.448;2023-01-10T09:25:43;101356.72;;;6.65;100.00
37238;BME280;23129;49.662;8.448;2023-01-10T09:28:13;101358.44;;;6.66;100.00
37238;BME280;23129;49.662;8.448;2023-01-10T09:30:41;101361.06;;;6.68;100.00
37238;BME280;23129;49.662;8.448;2023-01-10T09:33:12;101372.38;;;6.68;100.00
37238;BME280;23129;49.662;8.448;2023-01-10T09:35:41;101383.66;;;6.69;100.00
37238;BME280;23129;49.662;8.448;2023-01-10T09:38:13;101379.34;;;6.71;100.00
37238;BME280;23129;49.662;8.448;2023-01-10T09:41:20;101372.38;;;6.68;100.00
37238;BME280;23129;49.662;8.448;2023-01-10T09:44:01;101386.28;;;6.73;100.00
37238;BME280;23129;49.662;8.448;2023-01-10T09:46:42;101375.88;;;6.76;100.00
37238;BME280;23129;49.662;8.448;2023-01-10T09:49:28;101363.72;;;6.80;100.00
37238;BME280;23129;49.662;8.448;2023-01-10T09:52:03;101371.53;;;6.84;100.00
37238;BME280;23129;49.662;8.448;2023-01-10T09:54:41;101383.72;;;6.92;100.00
37238;BME280;23129;49.662;8.448;2023-01-10T09:57:15;101393.31;;;6.99;100.00
37238;BME280;23129;49.662;8.448;2023-01-10T09:59:44;101388.97;;;6.95;100.00
37238;BME280;23129;49.662;8.448;2023-01-10T10:02:25;101391.56;;;6.98;100.00
37238;BME280;23129;49.662;8.448;2023-01-10T10:05:09;101391.56;;;7.01;100.00
37238;BME280;23129;49.662;8.448;2023-01-10T10:07:39;101393.31;;;7.02;100.00
37238;BME280;23129;49.662;8.448;2023-01-10T10:10:14;101382.88;;;7.02;100.00
37238;BME280;23129;49.662;8.448;2023-01-10T10:12:54;101393.31;;;7.05;100.00
37238;BME280;23129;49.662;8.448;2023-01-10T10:15:31;101403.75;;;7.05;100.00
37238;BME280;23129;49.662;8.448;2023-01-10T10:18:16;101407.25;;;7.07;100.00
37238;BME280;23129;49.662;8.448;2023-01-10T10:20:59;101394.19;;;7.07;100.00
37238;BME280;23129;49.662;8.448;2023-01-10T10:23:52;101382.88;;;7.08;100.00
37238;BME280;23129;49.662;8.448;2023-01-10T10:26:32;101381.16;;;7.13;100.00
37238;BME280;23129;49.662;8.448;2023-01-10T10:29:13;101382.03;;;7.11;100.00
37238;BME280;23129;49.662;8.448;2023-01-10T10:31:59;101386.38;;;7.19;100.00
37238;BME280;23129;49.662;8.448;2023-01-10T10:34:36;101388.13;;;7.20;100.00
37238;BME280;23129;49.662;8.448;2023-01-10T10:37:12;101386.38;;;7.25;100.00
37238;BME280;23129;49.662;8.448;2023-01-10T10:39:47;101389.88;;;7.27;100.00
37238;BME280;23129;49.662;8.448;2023-01-10T10:42:18;101378.59;;;7.48;100.00
37238;BME280;23129;49.662;8.448;2023-01-10T10:44:54;101379.44;;;7.61;100.00
37238;BME280;23129;49.662;8.448;2023-01-10T10:47:28;101382.94;;;7.63;100.00
37238;BME280;23129;49.662;8.448;2023-01-10T10:50:05;101385.53;;;7.63;100.00
37238;BME280;23129;49.662;8.448;2023-01-10T10:52:37;101382.94;;;7.60;100.00
37238;BME280;23129;49.662;8.448;2023-01-10T10:55:12;101378.56;;;7.54;100.00
37238;BME280;23129;49.662;8.448;2023-01-10T10:57:42;101382.03;;;7.50;100.00
37238;BME280;23129;49.662;8.448;2023-01-10T11:00:26;101377.69;;;7.45;100.00
37238;BME280;23129;49.662;8.448;2023-01-10T11:03:00;101381.19;;;7.42;100.00
37238;BME280;23129;49.662;8.448;2023-01-10T11:05:36;101372.47;;;7.39;100.00
37238;BME280;23129;49.662;8.448;2023-01-10T11:08:10;101375.06;;;7.36;100.00
37238;BME280;23129;49.662;8.448;2023-01-10T11:10:40;101374.22;;;7.34;100.00
37238;BME280;23129;49.662;8.448;2023-01-10T11:13:19;101369.00;;;7.34;100.00
37238;BME280;23129;49.662;8.448;2023-01-10T11:15:49;101358.53;;;7.41;100.00
37238;BME280;23129;49.662;8.448;2023-01-10T11:18:19;101356.81;;;7.57;100.00
37238;BME280;23129;49.662;8.448;2023-01-10T11:20:51;101348.97;;;7.69;100.00
37238;BME280;23129;49.662;8.448;2023-01-10T11:23:36;101353.28;;;7.83;100.00
37238;BME280;23129;49.662;8.448;2023-01-10T11:26:10;101349.81;;;7.90;100.00
37238;BME280;23129;49.662;8.448;2023-01-10T11:28:51;101351.53;;;7.97;100.00
37238;BME280;23129;49.662;8.448;2023-01-10T11:31:26;101353.16;;;8.33;100.00
37238;BME280;23129;49.662;8.448;2023-01-10T11:33:55;101348.59;;;8.78;100.00
37238;BME280;23129;49.662;8.448;2023-01-10T11:36:24;101357.84;;;9.31;100.00
37238;BME280;23129;49.662;8.448;2023-01-10T11:39:00;101350.53;;;9.66;100.00
37238;BME280;23129;49.662;8.448;2023-01-10T11:41:30;101362.78;;;9.67;100.00
37238;BME280;23129;49.662;8.448;2023-01-10T11:44:16;101348.09;;;9.49;100.00
37238;BME280;23129;49.662;8.448;2023-01-10T11:46:46;101365.75;;;9.25;100.00
37238;BME280;23129;49.662;8.448;2023-01-10T11:49:24;101356.19;;;9.20;100.00
37238;BME280;23129;49.662;8.448;2023-01-10T11:51:58;101350.13;;;9.11;100.00
37238;BME280;23129;49.662;8.448;2023-01-10T11:54:29;101356.38;;;8.92;100.00
37238;BME280;23129;49.662;8.448;2023-01-10T11:57:06;101354.69;;;8.79;100.00
37238;BME280;23129;49.662;8.448;2023-01-10T11:59:36;101347.78;;;8.72;100.00
37238;BME280;23129;49.662;8.448;2023-01-10T12:02:22;101346.91;;;8.69;100.00
37238;BME280;23129;49.662;8.448;2023-01-10T12:04:52;101347.78;;;8.67;100.00
37238;BME280;23129;49.662;8.448;2023-01-10T12:07:22;101346.03;;;8.71;100.00
37238;BME280;23129;49.662;8.448;2023-01-10T12:09:57;101338.19;;;8.74;100.00
37238;BME280;23129;49.662;8.448;2023-01-10T12:12:28;101343.41;;;8.72;100.00
37238;BME280;23129;49.662;8.448;2023-01-10T12:14:59;101348.66;;;8.69;100.00
37238;BME280;23129;49.662;8.448;2023-01-10T12:17:41;101344.34;;;8.60;100.00
37238;BME280;23129;49.662;8.448;2023-01-10T12:20:13;101339.13;;;8.54;100.00
37238;BME280;23129;49.662;8.448;2023-01-10T12:22:45;101342.66;;;8.50;100.00
37238;BME280;23129;49.662;8.448;2023-01-10T12:25:21;101339.13;;;8.54;100.00
37238;BME280;23129;49.662;8.448;2023-01-10T12:27:50;101338.22;;;8.61;100.00
37238;BME280;23129;49.662;8.448;2023-01-10T12:30:27;101339.06;;;8.66;100.00
37238;BME280;23129;49.662;8.448;2023-01-10T12:33:01;101330.34;;;8.64;100.00
37238;BME280;23129;49.662;8.448;2023-01-10T12:35:39;101328.66;;;8.60;100.00
37238;BME280;23129;49.662;8.448;2023-01-10T12:38:21;101342.63;;;8.56;100.00
37238;BME280;23129;49.662;8.448;2023-01-10T12:41:11;101334.78;;;8.52;100.00
37238;BME280;23129;49.662;8.448;2023-01-10T12:44:02;101335.66;;;8.49;100.00
37238;BME280;23129;49.662;8.448;2023-01-10T12:46:44;101333.06;;;8.49;100.00
37238;BME280;23129;49.662;8.448;2023-01-10T12:49:45;101322.63;;;8.48;100.00
37238;BME280;23129;49.662;8.448;2023-01-10T12:52:26;101328.72;;;8.48;100.00
37238;BME280;23129;49.662;8.448;2023-01-10T12:54:57;101329.59;;;8.47;100.00
37238;BME280;23129;49.662;8.448;2023-01-10T12:57:34;101327.84;;;8.48;100.00
37238;BME280;23129;49.662;8.448;2023-01-10T13:00:07;101321.78;;;8.44;100.00
37238;BME280;23129;49.662;8.448;2023-01-10T13:02:45;101322.66;;;8.41;100.00
37238;BME280;23129;49.662;8.448;2023-01-10T13:05:18;101321.78;;;8.41;100.00
37238;BME280;23129;49.662;8.448;2023-01-10T13:07:49;101334.88;;;8.41;100.00
37238;BME280;23129;49.662;8.448;2023-01-10T13:10:21;101327.03;;;8.41;100.00
37238;BME280;23129;49.662;8.448;2023-01-10T13:12:57;101320.91;;;8.40;100.00
37238;BME280;23129;49.662;8.448;2023-01-10T13:15:30;101337.47;;;8.41;100.00
37238;BME280;23129;49.662;8.448;2023-01-10T13:18:04;101328.75;;;8.39;100.00
37238;BME280;23129;49.662;8.448;2023-01-10T13:20:39;101320.03;;;8.34;100.00
37238;BME280;23129;49.662;8.448;2023-01-10T13:23:27;101326.16;;;8.28;100.00
37238;BME280;23129;49.662;8.448;2023-01-10T13:26:01;101325.28;;;8.31;100.00